Heath, Ohio
Current Conditions -  °F | °C
As of 2:54 PM on Thursday 18 Dec 2014 (Local Time) from KVTA Reporting Station
Overcast Overcast  
Wind Chill: 22°   Ceiling: 1800
Heat Index: 29°   Visibility: 10mi
Dew Point: 21°   Wind: 7mph
Humidity: 72%   Direction: 270°W
Pressure: 30.19"   Gusts: NA
Location:  40.04°N, 82.43°W
Report Text: KVTA 181954Z AUTO 27006KT 10SM OVC018 M02/M06 A3019 RMK AO2 SLP235 T10171061
Loading
Personal Weather Stations






























Interactive Weather Map New forecast layout! Learn more

10-Day Weather Forecast

Advertisements
Track Severe Weather on mobile